createdAt,value
2023-04-12T00:00:58.576Z,608.00
2023-04-12T00:01:58.592Z,607.00
2023-04-12T00:02:58.672Z,608.00
2023-04-12T00:03:59.015Z,604.00
2023-04-12T00:04:58.713Z,606.00
2023-04-12T00:05:58.713Z,606.00
2023-04-12T00:06:58.737Z,606.00
2023-04-12T00:07:58.818Z,608.00
2023-04-12T00:08:58.808Z,604.00
2023-04-12T00:09:58.846Z,604.00
2023-04-12T00:10:58.814Z,603.00
2023-04-12T00:11:58.845Z,605.00
2023-04-12T00:12:58.822Z,600.00
2023-04-12T00:13:58.852Z,600.00
2023-04-12T00:14:58.798Z,600.00
2023-04-12T00:15:58.870Z,600.00
2023-04-12T00:16:58.814Z,595.00
2023-04-12T00:17:58.871Z,596.00
2023-04-12T00:18:58.830Z,596.00
2023-04-12T00:19:58.842Z,599.00
2023-04-12T00:20:58.858Z,593.00
2023-04-12T00:21:58.841Z,595.00
2023-04-12T00:22:58.829Z,593.00
2023-04-12T00:23:59.158Z,592.00
2023-04-12T00:24:58.836Z,593.00
2023-04-12T00:25:58.840Z,591.00
2023-04-12T00:26:58.848Z,594.00
2023-04-12T00:27:59.064Z,591.00
2023-04-12T00:28:58.929Z,591.00
2023-04-12T00:29:58.955Z,588.00
2023-04-12T00:30:58.991Z,587.00
2023-04-12T00:31:59.014Z,587.00
2023-04-12T00:32:59.031Z,587.00
2023-04-12T00:33:59.197Z,587.00
2023-04-12T00:34:59.025Z,587.00
2023-04-12T00:35:59.013Z,588.00
2023-04-12T00:36:59.025Z,585.00
2023-04-12T00:37:59.032Z,586.00
2023-04-12T00:38:59.045Z,583.00
2023-04-12T00:39:59.030Z,584.00
2023-04-12T00:40:59.033Z,584.00
2023-04-12T00:41:59.026Z,587.00
2023-04-12T00:42:59.053Z,583.00
2023-04-12T00:43:59.325Z,581.00
2023-04-12T00:44:59.035Z,582.00
2023-04-12T00:45:58.985Z,582.00
2023-04-12T00:46:59.076Z,581.00
2023-04-12T00:47:59.072Z,578.00
2023-04-12T00:48:59.016Z,578.00
2023-04-12T00:49:59.026Z,577.00
2023-04-12T00:50:59.026Z,577.00
2023-04-12T00:51:59.048Z,577.00
2023-04-12T00:52:59.022Z,574.00
2023-04-12T00:53:59.054Z,578.00
2023-04-12T00:54:59.080Z,574.00
2023-04-12T00:55:59.075Z,575.00
2023-04-12T00:56:59.083Z,572.00
2023-04-12T00:57:59.083Z,573.00
2023-04-12T00:58:59.216Z,575.00
2023-04-12T00:59:59.074Z,573.00
2023-04-12T01:00:59.171Z,570.00
2023-04-12T01:01:59.122Z,573.00
2023-04-12T01:02:59.265Z,572.00
2023-04-12T01:03:59.337Z,574.00
2023-04-12T01:04:59.043Z,570.00
2023-04-12T01:05:59.036Z,568.00
2023-04-12T01:06:59.044Z,567.00
2023-04-12T01:07:59.054Z,566.00
2023-04-12T01:08:59.068Z,565.00
2023-04-12T01:09:59.058Z,566.00
2023-04-12T01:10:59.042Z,566.00
2023-04-12T01:11:59.042Z,567.00
2023-04-12T01:12:59.053Z,566.00
2023-04-12T01:13:59.036Z,561.00
2023-04-12T01:14:59.037Z,561.00
2023-04-12T01:15:59.032Z,561.00
2023-04-12T01:16:59.020Z,565.00
2023-04-12T01:17:59.060Z,562.00
2023-04-12T01:18:59.037Z,558.00
2023-04-12T01:19:59.006Z,560.00
2023-04-12T01:20:59.010Z,559.00
2023-04-12T01:21:59.012Z,558.00
2023-04-12T01:22:58.985Z,561.00
2023-04-12T01:23:59.308Z,556.00
2023-04-12T01:24:58.966Z,555.00
2023-04-12T01:25:59.054Z,560.00
2023-04-12T01:26:58.983Z,557.00
2023-04-12T01:27:58.944Z,557.00
2023-04-12T01:28:58.962Z,555.00
2023-04-12T01:29:58.967Z,555.00
2023-04-12T01:30:58.984Z,554.00
2023-04-12T01:31:59.033Z,554.00
2023-04-12T01:32:58.986Z,552.00
2023-04-12T01:33:59.270Z,550.00
2023-04-12T01:34:58.935Z,549.00
2023-04-12T01:35:58.977Z,549.00
2023-04-12T01:36:58.934Z,551.00
2023-04-12T01:37:58.951Z,548.00
2023-04-12T01:38:58.964Z,550.00
2023-04-12T01:39:58.952Z,547.00
2023-04-12T01:40:58.930Z,549.00
2023-04-12T01:41:58.951Z,548.00
2023-04-12T01:42:58.948Z,547.00
2023-04-12T01:43:59.186Z,547.00
2023-04-12T01:44:58.922Z,544.00
2023-04-12T01:45:58.961Z,546.00
2023-04-12T01:46:58.916Z,542.00
2023-04-12T01:47:58.958Z,542.00
2023-04-12T01:48:58.924Z,542.00
2023-04-12T01:49:58.892Z,540.00
2023-04-12T01:50:58.883Z,539.00
2023-04-12T01:51:58.875Z,539.00
2023-04-12T01:52:58.870Z,537.00
2023-04-12T01:53:59.014Z,537.00
2023-04-12T01:54:58.858Z,538.00
2023-04-12T01:55:58.893Z,540.00
2023-04-12T01:56:58.885Z,538.00
2023-04-12T01:57:58.863Z,536.00
2023-04-12T01:58:58.876Z,534.00
2023-04-12T01:59:58.883Z,535.00
2023-04-12T02:00:58.894Z,536.00
2023-04-12T02:01:58.909Z,531.00
2023-04-12T02:02:58.913Z,532.00
2023-04-12T02:03:59.216Z,532.00
2023-04-12T02:04:58.846Z,532.00
2023-04-12T02:05:58.844Z,530.00
2023-04-12T02:06:58.858Z,531.00
2023-04-12T02:07:58.850Z,531.00
2023-04-12T02:08:58.869Z,530.00
2023-04-12T02:09:58.860Z,532.00
2023-04-12T02:10:58.839Z,529.00
2023-04-12T02:11:58.844Z,529.00
2023-04-12T02:12:58.850Z,528.00
2023-04-12T02:13:59.138Z,525.00
2023-04-12T02:14:58.805Z,528.00
2023-04-12T02:15:58.842Z,523.00
2023-04-12T02:16:58.885Z,523.00
2023-04-12T02:17:58.908Z,523.00
2023-04-12T02:18:58.805Z,523.00
2023-04-12T02:19:58.815Z,521.00
2023-04-12T02:20:58.799Z,520.00
2023-04-12T02:21:58.818Z,524.00
2023-04-12T02:22:58.799Z,521.00
2023-04-12T02:23:58.895Z,522.00
2023-04-12T02:24:58.814Z,520.00
2023-04-12T02:25:58.778Z,522.00
2023-04-12T02:26:58.777Z,519.00
2023-04-12T02:27:58.797Z,518.00
2023-04-12T02:28:58.784Z,521.00
2023-04-12T02:29:58.760Z,519.00
2023-04-12T02:30:58.816Z,518.00
2023-04-12T02:31:58.771Z,519.00
2023-04-12T02:32:58.846Z,519.00
2023-04-12T02:33:58.821Z,517.00
2023-04-12T02:34:58.791Z,519.00
2023-04-12T02:35:58.886Z,517.00
2023-04-12T02:36:58.796Z,514.00
2023-04-12T02:37:58.787Z,516.00
2023-04-12T02:38:58.774Z,511.00
2023-04-12T02:39:58.757Z,511.00
2023-04-12T02:40:58.763Z,512.00
2023-04-12T02:41:58.802Z,514.00
2023-04-12T02:42:58.761Z,512.00
2023-04-12T02:43:58.924Z,511.00
2023-04-12T02:44:58.774Z,510.00
2023-04-12T02:45:58.807Z,507.00
2023-04-12T02:46:58.781Z,509.00
2023-04-12T02:47:58.792Z,509.00
2023-04-12T02:48:58.726Z,509.00
2023-04-12T02:49:58.756Z,507.00
2023-04-12T02:50:58.752Z,508.00
2023-04-12T02:51:58.726Z,506.00
2023-04-12T02:52:58.757Z,506.00
2023-04-12T02:53:58.880Z,508.00
2023-04-12T02:54:58.745Z,505.00
2023-04-12T02:55:58.700Z,506.00
2023-04-12T02:56:58.724Z,509.00
2023-04-12T02:57:58.704Z,505.00
2023-04-12T02:58:58.742Z,506.00
2023-04-12T02:59:58.714Z,504.00
2023-04-12T03:00:58.737Z,506.00
2023-04-12T03:01:58.787Z,504.00
2023-04-12T03:02:58.895Z,501.00
2023-04-12T03:03:58.998Z,505.00
2023-04-12T03:04:58.717Z,501.00
2023-04-12T03:05:58.735Z,501.00
2023-04-12T03:06:58.720Z,503.00
2023-04-12T03:07:58.705Z,503.00
2023-04-12T03:08:58.725Z,502.00
2023-04-12T03:09:58.725Z,501.00
2023-04-12T03:10:58.732Z,502.00
2023-04-12T03:11:58.721Z,501.00
2023-04-12T03:12:58.711Z,505.00
2023-04-12T03:13:58.759Z,501.00
2023-04-12T03:14:58.708Z,502.00
2023-04-12T03:15:58.755Z,505.00
2023-04-12T03:16:58.710Z,500.00
2023-04-12T03:17:58.742Z,506.00
2023-04-12T03:18:58.731Z,504.00
2023-04-12T03:19:58.685Z,501.00
2023-04-12T03:20:58.700Z,504.00
2023-04-12T03:21:58.684Z,502.00
2023-04-12T03:22:58.692Z,503.00
2023-04-12T03:23:58.819Z,502.00
2023-04-12T03:24:58.686Z,501.00
2023-04-12T03:25:58.654Z,501.00
2023-04-12T03:26:58.673Z,504.00
2023-04-12T03:27:58.667Z,505.00
2023-04-12T03:28:58.672Z,505.00
2023-04-12T03:29:58.673Z,501.00
2023-04-12T03:30:58.678Z,502.00
2023-04-12T03:31:58.669Z,502.00
2023-04-12T03:32:58.699Z,501.00
2023-04-12T03:33:58.739Z,503.00
2023-04-12T03:34:58.653Z,503.00
2023-04-12T03:35:58.690Z,502.00
2023-04-12T03:36:58.667Z,504.00
2023-04-12T03:37:58.614Z,505.00
2023-04-12T03:38:58.656Z,502.00
2023-04-12T03:39:58.713Z,503.00
2023-04-12T03:40:58.653Z,502.00
2023-04-12T03:41:58.629Z,502.00
2023-04-12T03:43:00.656Z,501.00
2023-04-12T03:43:58.892Z,507.00
2023-04-12T03:44:58.626Z,501.00
2023-04-12T03:45:58.689Z,501.00
2023-04-12T03:46:58.594Z,503.00
2023-04-12T03:47:58.595Z,501.00
2023-04-12T03:48:58.620Z,502.00
2023-04-12T03:50:11.065Z,507.00
2023-04-12T03:50:59.586Z,507.00
2023-04-12T03:51:58.575Z,507.00
2023-04-12T03:52:58.583Z,506.00
2023-04-12T03:53:58.902Z,504.00
2023-04-12T03:54:58.568Z,504.00
2023-04-12T03:55:58.564Z,501.00
2023-04-12T03:56:58.521Z,502.00
2023-04-12T03:57:58.545Z,500.00
2023-04-12T03:58:58.530Z,501.00
2023-04-12T03:59:58.510Z,504.00
2023-04-12T04:00:58.505Z,502.00
2023-04-12T04:01:58.646Z,502.00
2023-04-12T04:02:58.542Z,501.00
2023-04-12T04:03:58.748Z,503.00
2023-04-12T04:04:58.537Z,504.00
2023-04-12T04:05:58.494Z,508.00
2023-04-12T04:06:58.462Z,502.00
2023-04-12T04:07:58.466Z,502.00
2023-04-12T04:08:58.464Z,502.00
2023-04-12T04:09:58.447Z,507.00
2023-04-12T04:10:58.452Z,506.00
2023-04-12T04:11:58.434Z,508.00
2023-04-12T04:12:58.438Z,500.00
2023-04-12T04:13:58.604Z,504.00
2023-04-12T04:14:58.408Z,504.00
2023-04-12T04:15:58.424Z,505.00
2023-04-12T04:16:58.400Z,504.00
2023-04-12T04:17:58.465Z,503.00
2023-04-12T04:18:58.401Z,504.00
2023-04-12T04:19:58.381Z,506.00
2023-04-12T04:20:58.359Z,504.00
2023-04-12T04:21:58.336Z,502.00
2023-04-12T04:22:58.346Z,500.00
2023-04-12T04:23:58.700Z,502.00
2023-04-12T04:24:58.329Z,502.00
2023-04-12T04:25:58.337Z,502.00
2023-04-12T04:26:58.323Z,505.00
2023-04-12T04:27:58.336Z,504.00
2023-04-12T04:28:58.301Z,504.00
2023-04-12T04:29:58.331Z,505.00
2023-04-12T04:30:58.302Z,503.00
2023-04-12T04:31:58.332Z,500.00
2023-04-12T04:32:58.407Z,504.00
2023-04-12T04:33:58.431Z,501.00
2023-04-12T04:34:58.286Z,501.00
2023-04-12T04:35:58.311Z,501.00
2023-04-12T04:36:58.259Z,502.00
2023-04-12T04:37:58.276Z,500.00
2023-04-12T04:38:58.241Z,501.00
2023-04-12T04:39:58.262Z,504.00
2023-04-12T04:40:58.240Z,504.00
2023-04-12T04:41:58.246Z,504.00
2023-04-12T04:42:58.233Z,508.00
2023-04-12T04:43:58.395Z,501.00
2023-04-12T04:44:58.215Z,501.00
2023-04-12T04:45:58.232Z,502.00
2023-04-12T04:46:58.199Z,502.00
2023-04-12T04:47:58.217Z,505.00
2023-04-12T04:48:58.184Z,502.00
2023-04-12T04:49:58.180Z,502.00
2023-04-12T04:50:58.168Z,505.00
2023-04-12T04:51:58.143Z,503.00
2023-04-12T04:52:58.187Z,502.00
2023-04-12T04:53:58.314Z,505.00
2023-04-12T04:54:58.154Z,503.00
2023-04-12T04:55:58.116Z,503.00
2023-04-12T04:56:58.141Z,503.00
2023-04-12T04:57:58.134Z,500.00
2023-04-12T04:58:58.537Z,501.00
2023-04-12T04:59:58.095Z,507.00
2023-04-12T05:01:05.114Z,501.00
2023-04-12T05:01:58.101Z,502.00
2023-04-12T05:02:58.194Z,503.00
2023-04-12T05:03:58.125Z,505.00
2023-04-12T05:04:58.076Z,504.00
2023-04-12T05:05:58.084Z,506.00
2023-04-12T05:06:58.060Z,505.00
2023-04-12T05:07:58.033Z,502.00
2023-04-12T05:08:58.441Z,500.00
2023-04-12T05:09:58.117Z,501.00
2023-04-12T05:10:58.032Z,505.00
2023-04-12T05:11:58.020Z,502.00
2023-04-12T05:12:58.033Z,504.00
2023-04-12T05:13:58.000Z,502.00
2023-04-12T05:15:58.017Z,502.00
2023-04-12T05:16:58.064Z,500.00
2023-04-12T05:17:58.051Z,502.00
2023-04-12T05:18:58.193Z,500.00
2023-04-12T05:19:57.964Z,501.00
2023-04-12T05:20:57.972Z,500.00
2023-04-12T05:21:57.941Z,501.00
2023-04-12T05:22:57.945Z,501.00
2023-04-12T05:23:57.976Z,507.00
2023-04-12T05:24:57.923Z,502.00
2023-04-12T05:25:57.919Z,501.00
2023-04-12T05:26:57.913Z,502.00
2023-04-12T05:27:57.920Z,506.00
2023-04-12T05:28:58.066Z,504.00
2023-04-12T05:29:57.900Z,504.00
2023-04-12T05:30:57.984Z,503.00
2023-04-12T05:31:57.919Z,501.00
2023-04-12T05:32:57.937Z,500.00
2023-04-12T05:33:58.178Z,514.00
2023-04-12T05:34:57.888Z,510.00
2023-04-12T05:35:57.875Z,508.00
2023-04-12T05:36:57.861Z,501.00
2023-04-12T05:37:57.866Z,503.00
2023-04-12T05:38:58.420Z,500.00
2023-04-12T05:39:57.864Z,501.00
2023-04-12T05:40:57.829Z,590.00
2023-04-12T05:41:57.829Z,630.00
2023-04-12T05:42:57.832Z,650.00
2023-04-12T05:43:58.221Z,611.00
2023-04-12T05:44:57.795Z,620.00
2023-04-12T05:46:04.913Z,609.00
2023-04-12T05:46:57.795Z,610.00
2023-04-12T05:47:57.828Z,619.00
2023-04-12T05:48:58.385Z,640.00
2023-04-12T05:49:57.793Z,670.00
2023-04-12T05:50:57.779Z,755.00
2023-04-12T05:51:57.833Z,868.00
2023-04-12T05:52:57.766Z,865.00
2023-04-12T05:53:57.763Z,911.00
2023-04-12T05:54:57.773Z,962.00
2023-04-12T05:55:57.754Z,993.00
2023-04-12T05:56:57.760Z,1024.00
2023-04-12T05:57:57.733Z,1064.00
2023-04-12T05:58:57.924Z,1161.00
2023-04-12T05:59:57.718Z,1196.00
2023-04-12T06:00:57.728Z,1224.00
2023-04-12T06:01:57.800Z,1257.00
2023-04-12T06:02:57.739Z,1308.00
2023-04-12T06:03:57.790Z,1370.00
2023-04-12T06:04:57.903Z,1412.00
2023-04-12T06:05:57.717Z,1445.00
2023-04-12T06:06:57.666Z,1514.00
2023-04-12T06:07:57.682Z,1589.00
2023-04-12T06:08:57.879Z,1600.00
2023-04-12T06:09:57.686Z,1662.00
2023-04-12T06:10:57.666Z,1690.00
2023-04-12T06:11:58.211Z,1756.00
2023-04-12T06:12:57.635Z,1777.00
2023-04-12T06:13:57.613Z,1852.00
2023-04-12T06:14:57.630Z,1939.00
2023-04-12T06:15:57.663Z,1938.00
2023-04-12T06:16:57.595Z,1993.00
2023-04-12T06:17:57.632Z,1975.00
2023-04-12T06:18:57.795Z,2019.00
2023-04-12T06:19:57.688Z,2066.00
2023-04-12T06:20:57.601Z,2043.00
2023-04-12T06:21:57.614Z,2070.00
2023-04-12T06:22:57.594Z,2094.00
2023-04-12T06:23:57.535Z,2160.00
2023-04-12T06:24:57.727Z,2167.00
2023-04-12T06:25:57.602Z,2180.00
2023-04-12T06:26:57.522Z,2223.00
2023-04-12T06:27:57.542Z,2247.00
2023-04-12T06:28:57.707Z,2264.00
2023-04-12T06:29:57.714Z,2319.00
2023-04-12T06:30:57.550Z,2353.00
2023-04-12T06:31:57.580Z,2359.00
2023-04-12T06:32:57.631Z,2334.00
2023-04-12T06:33:57.635Z,2370.00
2023-04-12T06:34:57.705Z,2404.00
2023-04-12T06:35:57.821Z,2494.00
2023-04-12T06:36:57.871Z,2516.00
2023-04-12T06:37:57.861Z,2532.00
2023-04-12T06:38:58.083Z,2525.00
2023-04-12T06:39:58.262Z,2529.00
2023-04-12T06:40:58.039Z,2414.00
2023-04-12T06:41:58.074Z,2415.00
2023-04-12T06:42:58.110Z,2358.00
2023-04-12T06:43:58.194Z,2368.00
2023-04-12T06:44:58.225Z,2238.00
2023-04-12T06:45:58.273Z,2150.00
2023-04-12T06:46:58.383Z,2208.00
2023-04-12T06:47:58.387Z,2103.00
2023-04-12T06:48:58.562Z,2012.00
2023-04-12T06:49:58.380Z,1946.00
2023-04-12T06:50:58.366Z,2008.00
2023-04-12T06:51:58.325Z,1954.00
2023-04-12T06:52:58.363Z,1845.00
2023-04-12T06:53:58.325Z,1888.00
2023-04-12T06:54:58.367Z,1878.00
2023-04-12T06:55:58.528Z,1778.00
2023-04-12T06:56:58.451Z,1775.00
2023-04-12T06:57:58.471Z,1774.00
2023-04-12T06:58:58.691Z,1715.00
2023-04-12T06:59:58.493Z,1682.00
2023-04-12T07:00:58.646Z,1630.00
2023-04-12T07:01:58.589Z,1560.00
2023-04-12T07:02:58.710Z,1524.00
2023-04-12T07:03:58.812Z,1540.00
2023-04-12T07:04:58.735Z,1577.00
2023-04-12T07:05:58.758Z,1658.00
2023-04-12T07:06:58.793Z,1633.00
2023-04-12T07:07:58.836Z,1659.00
2023-04-12T07:08:59.132Z,1620.00
2023-04-12T07:09:58.875Z,1640.00
2023-04-12T07:11:03.864Z,1609.00
2023-04-12T07:11:59.899Z,1609.00
2023-04-12T07:12:58.898Z,1556.00
2023-04-12T07:13:58.879Z,1494.00
2023-04-12T07:14:58.892Z,1485.00
2023-04-12T07:15:58.928Z,1499.00
2023-04-12T07:16:58.995Z,1494.00
2023-04-12T07:17:58.914Z,1486.00
2023-04-12T07:18:59.148Z,1529.00
2023-04-12T07:19:58.879Z,1631.00
2023-04-12T07:20:58.875Z,1576.00
2023-04-12T07:21:58.836Z,1574.00
2023-04-12T07:22:58.832Z,1604.00
2023-04-12T07:23:58.939Z,1587.00
2023-04-12T07:24:58.849Z,1575.00
2023-04-12T07:25:58.857Z,1544.00
2023-04-12T07:26:58.813Z,1527.00
2023-04-12T07:27:58.796Z,1663.00
2023-04-12T07:28:59.160Z,1628.00
2023-04-12T07:29:59.249Z,1645.00
2023-04-12T07:30:58.772Z,1664.00
2023-04-12T07:31:58.756Z,1621.00
2023-04-12T07:33:08.306Z,1378.00
2023-04-12T07:33:59.814Z,1380.00
2023-04-12T07:34:59.767Z,1383.00
2023-04-12T07:35:58.852Z,1387.00
2023-04-12T07:36:58.746Z,1364.00
2023-04-12T07:37:58.741Z,1316.00
2023-04-12T07:38:59.009Z,1287.00
2023-04-12T07:39:58.993Z,1202.00
2023-04-12T07:40:58.713Z,1225.00
2023-04-12T07:41:58.684Z,1250.00
2023-04-12T07:42:58.699Z,1275.00
2023-04-12T07:43:58.725Z,1268.00
2023-04-12T07:44:58.743Z,1236.00
2023-04-12T07:45:58.707Z,1230.00
2023-04-12T07:46:58.689Z,1283.00
2023-04-12T07:47:58.685Z,1267.00
2023-04-12T07:48:58.935Z,1169.00
2023-04-12T07:49:58.728Z,1176.00
2023-04-12T07:50:58.650Z,1112.00
2023-04-12T07:51:58.666Z,1071.00
2023-04-12T07:52:58.654Z,1045.00
2023-04-12T07:53:58.892Z,1038.00
2023-04-12T07:54:58.714Z,1032.00
2023-04-12T07:55:58.704Z,1019.00
2023-04-12T07:56:58.723Z,1023.00
2023-04-12T07:57:58.746Z,998.00
2023-04-12T07:58:58.839Z,988.00
2023-04-12T07:59:58.785Z,957.00
2023-04-12T08:01:01.046Z,927.00
2023-04-12T08:01:59.199Z,878.00
2023-04-12T08:02:59.122Z,869.00
2023-04-12T08:03:59.232Z,875.00
2023-04-12T08:04:59.058Z,836.00
2023-04-12T08:05:59.013Z,997.00
2023-04-12T08:06:59.041Z,948.00
2023-04-12T08:07:59.004Z,864.00
2023-04-12T08:08:59.032Z,890.00
2023-04-12T08:09:59.053Z,936.00
2023-04-12T08:10:59.055Z,942.00
2023-04-12T08:11:59.212Z,998.00
2023-04-12T08:12:59.172Z,959.00
2023-04-12T08:13:59.522Z,1001.00
2023-04-12T08:14:59.323Z,1002.00
2023-04-12T08:15:59.400Z,1000.00
2023-04-12T08:16:59.406Z,960.00
2023-04-12T08:17:59.478Z,970.00
2023-04-12T08:18:59.523Z,987.00
2023-04-12T08:19:59.571Z,995.00
2023-04-12T08:20:59.612Z,1038.00
2023-04-12T08:21:59.681Z,1050.00
2023-04-12T08:22:59.725Z,1041.00
2023-04-12T08:23:59.952Z,1076.00
2023-04-12T08:25:00.415Z,1085.00
2023-04-12T08:25:59.858Z,1138.00
2023-04-12T08:26:59.910Z,1179.00
2023-04-12T08:28:00.037Z,1153.00
2023-04-12T08:28:59.988Z,1160.00
2023-04-12T08:30:00.544Z,1160.00
2023-04-12T08:31:00.205Z,1155.00
2023-04-12T08:32:00.168Z,2470.00
2023-04-12T08:33:00.249Z,1628.00
2023-04-12T08:34:00.426Z,1191.00
2023-04-12T08:35:00.400Z,991.00
2023-04-12T08:36:00.465Z,978.00
2023-04-12T08:37:00.588Z,891.00
2023-04-12T08:38:00.453Z,861.00
2023-04-12T08:39:00.494Z,834.00
2023-04-12T08:40:00.466Z,799.00
2023-04-12T08:41:00.526Z,759.00
2023-04-12T08:42:00.465Z,762.00
2023-04-12T08:43:00.491Z,661.00
2023-04-12T08:44:00.759Z,631.00
2023-04-12T08:45:00.554Z,604.00
2023-04-12T08:46:00.685Z,615.00
2023-04-12T08:47:00.661Z,596.00
2023-04-12T08:48:00.700Z,588.00
2023-04-12T08:49:00.724Z,593.00
2023-04-12T08:50:00.761Z,556.00
2023-04-12T08:51:00.824Z,533.00
2023-04-12T08:52:00.844Z,535.00
2023-04-12T08:53:00.908Z,546.00
2023-04-12T08:54:00.962Z,521.00
2023-04-12T08:55:01.104Z,523.00
2023-04-12T08:56:01.272Z,525.00
2023-04-12T08:57:01.063Z,526.00
2023-04-12T08:58:01.098Z,516.00
2023-04-12T08:59:01.802Z,506.00
2023-04-12T09:00:01.453Z,507.00
2023-04-12T09:01:01.160Z,500.00
2023-04-12T09:02:01.257Z,511.00
2023-04-12T09:03:01.379Z,511.00
2023-04-12T09:04:01.616Z,505.00
2023-04-12T09:05:01.335Z,518.00
2023-04-12T09:06:01.246Z,521.00
2023-04-12T09:07:01.220Z,521.00
2023-04-12T09:08:01.201Z,535.00
2023-04-12T09:09:01.188Z,522.00
2023-04-12T09:10:01.173Z,534.00
2023-04-12T09:11:01.187Z,512.00
2023-04-12T09:12:01.206Z,517.00
2023-04-12T09:13:01.183Z,510.00
2023-04-12T09:14:01.353Z,538.00
2023-04-12T09:15:01.154Z,534.00
2023-04-12T09:16:01.199Z,520.00
2023-04-12T09:17:01.213Z,538.00
2023-04-12T09:18:01.245Z,570.00
2023-04-12T09:19:01.158Z,561.00
2023-04-12T09:20:01.169Z,554.00
2023-04-12T09:21:01.207Z,564.00
2023-04-12T09:22:01.174Z,596.00
2023-04-12T09:23:01.266Z,591.00
2023-04-12T09:24:01.271Z,616.00
2023-04-12T09:25:01.235Z,621.00
2023-04-12T09:26:01.281Z,640.00
2023-04-12T09:27:01.324Z,652.00
2023-04-12T09:28:01.334Z,665.00
2023-04-12T09:29:01.368Z,756.00
2023-04-12T09:30:01.397Z,764.00
2023-04-12T09:31:01.514Z,786.00
2023-04-12T09:32:01.683Z,854.00
2023-04-12T09:33:01.647Z,856.00
2023-04-12T09:34:01.633Z,881.00
2023-04-12T09:35:01.650Z,906.00
2023-04-12T09:36:01.840Z,929.00
2023-04-12T09:37:01.812Z,959.00
2023-04-12T09:38:01.893Z,937.00
2023-04-12T09:39:02.028Z,939.00
2023-04-12T09:40:01.986Z,987.00
2023-04-12T09:41:02.042Z,923.00
2023-04-12T09:42:02.119Z,966.00
2023-04-12T09:43:02.167Z,1012.00
2023-04-12T09:44:02.238Z,1037.00
2023-04-12T09:45:02.269Z,1091.00
2023-04-12T09:46:02.415Z,1078.00
2023-04-12T09:47:02.379Z,1033.00
2023-04-12T09:48:02.591Z,1046.00
2023-04-12T09:49:02.497Z,1087.00
2023-04-12T09:50:03.324Z,1054.00
2023-04-12T09:51:02.640Z,1102.00
2023-04-12T09:52:02.716Z,1117.00
2023-04-12T09:53:02.772Z,1143.00
2023-04-12T09:54:02.839Z,1146.00
2023-04-12T09:55:02.893Z,1068.00
2023-04-12T09:56:02.980Z,1131.00
2023-04-12T09:57:02.976Z,1152.00
2023-04-12T09:58:03.025Z,1157.00
2023-04-12T09:59:03.035Z,1177.00
2023-04-12T10:00:03.206Z,1184.00
2023-04-12T10:01:03.163Z,1184.00
2023-04-12T10:02:03.963Z,1111.00
2023-04-12T10:04:03.826Z,1173.00
2023-04-12T10:05:03.470Z,1183.00
2023-04-12T10:06:03.829Z,1219.00
2023-04-12T10:07:03.450Z,1198.00
2023-04-12T10:08:03.464Z,1221.00
2023-04-12T10:09:03.550Z,1229.00
2023-04-12T10:10:03.617Z,1181.00
2023-04-12T10:11:03.826Z,1213.00
2023-04-12T10:12:03.680Z,1260.00
2023-04-12T10:13:03.690Z,1267.00
2023-04-12T10:14:03.748Z,1287.00
2023-04-12T10:15:03.794Z,1304.00
2023-04-12T10:16:03.857Z,1302.00
2023-04-12T10:17:03.959Z,1303.00
2023-04-12T10:18:03.953Z,1321.00
2023-04-12T10:19:04.055Z,1339.00
2023-04-12T10:20:04.048Z,1235.00
2023-04-12T10:21:04.821Z,1295.00
2023-04-12T10:22:04.100Z,1336.00
2023-04-12T10:23:04.168Z,1353.00
2023-04-12T10:24:04.161Z,1350.00
2023-04-12T10:25:04.200Z,1300.00
2023-04-12T10:26:04.451Z,1285.00
2023-04-12T10:27:04.312Z,1336.00
2023-04-12T10:28:04.728Z,1286.00
2023-04-12T10:29:04.698Z,1258.00
2023-04-12T10:30:04.452Z,1268.00
2023-04-12T10:31:04.871Z,1259.00
2023-04-12T10:32:04.572Z,1258.00
2023-04-12T10:33:04.884Z,1217.00
2023-04-12T10:34:04.673Z,1274.00
2023-04-12T10:35:04.674Z,1231.00
2023-04-12T10:36:04.899Z,1264.00
2023-04-12T10:37:04.767Z,1196.00
2023-04-12T10:38:05.778Z,1198.00
2023-04-12T10:39:04.788Z,1214.00
2023-04-12T10:40:04.763Z,1228.00
2023-04-12T10:41:04.805Z,1263.00
2023-04-12T10:42:04.722Z,1258.00
2023-04-12T10:43:04.727Z,1239.00
2023-04-12T10:44:04.726Z,1298.00
2023-04-12T10:45:04.731Z,1283.00
2023-04-12T10:46:04.786Z,1279.00
2023-04-12T10:47:04.769Z,1301.00
2023-04-12T10:48:04.727Z,1323.00
2023-04-12T10:49:04.678Z,1370.00
2023-04-12T10:50:04.780Z,1416.00
2023-04-12T10:51:04.831Z,1445.00
2023-04-12T10:52:04.822Z,1476.00
2023-04-12T10:53:04.877Z,1475.00
2023-04-12T10:54:04.911Z,1502.00
2023-04-12T10:55:04.916Z,1507.00
2023-04-12T10:56:04.974Z,1516.00
2023-04-12T10:57:05.032Z,1519.00
2023-04-12T10:58:05.049Z,1523.00
2023-04-12T10:59:05.531Z,1521.00
2023-04-12T11:00:05.120Z,1505.00
2023-04-12T11:01:05.277Z,1519.00
2023-04-12T11:02:05.333Z,1516.00
2023-04-12T11:03:05.361Z,1539.00
2023-04-12T11:04:05.520Z,1544.00
2023-04-12T11:05:05.426Z,1497.00
2023-04-12T11:06:20.012Z,1520.00
2023-04-12T11:07:06.351Z,1520.00
2023-04-12T11:08:05.355Z,1515.00
2023-04-12T11:09:05.342Z,1519.00
2023-04-12T11:10:05.329Z,1516.00
2023-04-12T11:11:05.339Z,1532.00
2023-04-12T11:12:05.337Z,1519.00
2023-04-12T11:13:05.309Z,1531.00
2023-04-12T11:14:05.305Z,1514.00
2023-04-12T11:15:05.325Z,1508.00
2023-04-12T11:16:05.370Z,1518.00
2023-04-12T11:17:05.356Z,1508.00
2023-04-12T11:18:05.347Z,1507.00
2023-04-12T11:19:05.366Z,1505.00
2023-04-12T11:20:05.438Z,1512.00
2023-04-12T11:21:05.462Z,1520.00
2023-04-12T11:22:05.487Z,1518.00
2023-04-12T11:23:05.646Z,1510.00
2023-04-12T11:24:05.840Z,1491.00
2023-04-12T11:25:05.642Z,1512.00
2023-04-12T11:26:05.869Z,1436.00
2023-04-12T11:27:05.727Z,1416.00
2023-04-12T11:28:17.303Z,1433.00
2023-04-12T11:29:06.772Z,1348.00
2023-04-12T11:30:05.774Z,1136.00
2023-04-12T11:31:05.882Z,1099.00
2023-04-12T11:32:05.864Z,1008.00
2023-04-12T11:33:05.800Z,963.00
2023-04-12T11:34:05.741Z,887.00
2023-04-12T11:35:05.710Z,841.00
2023-04-12T11:36:05.867Z,821.00
2023-04-12T11:37:05.770Z,841.00
2023-04-12T11:38:05.758Z,809.00
2023-04-12T11:39:05.821Z,833.00
2023-04-12T11:40:05.854Z,831.00
2023-04-12T11:41:06.330Z,829.00
2023-04-12T11:42:05.999Z,773.00
2023-04-12T11:43:06.005Z,724.00
2023-04-12T11:44:06.054Z,729.00
2023-04-12T11:46:06.451Z,637.00
2023-04-12T11:47:06.178Z,637.00
2023-04-12T11:48:06.246Z,649.00
2023-04-12T11:49:06.206Z,640.00
2023-04-12T11:50:06.256Z,643.00
2023-04-12T11:51:11.286Z,621.00
2023-04-12T11:52:07.300Z,622.00
2023-04-12T11:53:06.269Z,622.00
2023-04-12T11:54:06.257Z,628.00
2023-04-12T11:55:06.284Z,621.00
2023-04-12T11:56:06.247Z,596.00
2023-04-12T11:57:06.260Z,583.00
2023-04-12T11:58:06.241Z,631.00
2023-04-12T11:59:06.252Z,623.00
2023-04-12T12:00:06.321Z,593.00
2023-04-12T12:01:06.201Z,621.00
2023-04-12T12:02:17.105Z,632.00
2023-04-12T12:03:08.581Z,632.00
2023-04-12T12:04:06.612Z,632.00
2023-04-12T12:05:06.376Z,624.00
2023-04-12T12:06:06.338Z,578.00
2023-04-12T12:07:06.803Z,578.00
2023-04-12T12:08:06.207Z,565.00
2023-04-12T12:09:06.173Z,550.00
2023-04-12T12:10:06.180Z,548.00
2023-04-12T12:11:08.508Z,511.00
2023-04-12T12:12:06.204Z,513.00
2023-04-12T12:13:06.194Z,515.00
2023-04-12T12:14:06.149Z,492.00
2023-04-12T12:15:06.140Z,486.00
2023-04-12T12:16:06.207Z,501.00
2023-04-12T12:17:06.149Z,501.00
2023-04-12T12:18:06.190Z,506.00
2023-04-12T12:19:06.153Z,500.00
2023-04-12T12:20:06.136Z,534.00
2023-04-12T12:21:06.087Z,549.00
2023-04-12T12:22:06.101Z,541.00
2023-04-12T12:23:06.102Z,533.00
2023-04-12T12:24:06.091Z,535.00